Αρχική σελίδα
METAR-TAF:

METAR-TAF

Αεροδρόμια :

São Gabriel da Cachoeira, Αμαζόνας, Βραζιλία

γεωγραφικό πλάτος: 00-08S, γεωγραφικό μήκος: 067-05W, υψόμετρο: 90 μ

Παρών καιρός

Η αναφορά έγινε 14 ώρες και 47 λεπτά πριν, στις 21:00 UTC
Άνεμος 2 kt από Δ
Θερμοκρασία 32°C
Υγρασία 63%
Πίεση 1009 hPa
Ορατότητα 10 χλμ και άνω
Διάσπαρτα νέφη σε ύψος 3700 πόδια

METAR: SBUA 212100Z 28002KT 9999 SCT037 32/24 Q1009

Χρόνος: 07:47 (11:47 UTC)


TAF: λείπει

Μετεωρολογικές αναφορές και προγνώσεις για περισσότερα από 4000 αεροδρόμια (δελτία METAR και TAF).

Οι διαθέσιμοι σταθμοί απεικονίζονται στο χάρτη με κίτρινες και κόκκινες κουκκίδες.

Μετακινήστε το ποντίκι πάνω από τις κουκκίδες για να δείτε το όνομα του σταθμού.

Στη συνέχεια, κάντε κλικ για να δείτε τις μετεωρολογικές αναφορές και τις προγνώσεις καιρού.

Για να αλλάξετε το χάρτη: κάντε κλικ στα πράσινα κουμπιά με τον μαύρο σταυρό για να ζουμάρετε, στο πράσινο κουμπί με την παύλα για να αφαιρέσετε το ζουμ ή στα πράσινα βέλη για να αντιπαραβάλλετε χάρτες.


METAR-TAF: